Aérodrome :
LOGIN :

S'inscrire | Disclaimer

   EN    FR    IT 

 










Légende :    VFR   VFR Marginal   IFR   IFR Intensif   IFR Très Intensif
Visi : 
Plafond : 
>= 8 km
>= 3000ft
5 à 8 km
1000 à 3000 ft
1500m à 5 km
500 à 1000 ft
800 à 1500m
200 à 500 ft
< 800m
< 200 ft
Symboles :   Orages  Brouillard  Fortes neiges  Fortes précipitations  Vent > 20 kt
SIGMETs :   Divers  Orages  Givrage  Turbulence  Onde Orograph.  Cendres Volcan.







- Altitude de l'aérodrome : 289 ft
- Voir les cartes d'approche


LFYR - Romorantin Pruniers

DERNIER METAR :
  • 131630Z AUTO 20013KT 5000 -RA BR OVC008 09/08 Q1004

METARs EXPIRÉS :
  • 131600Z AUTO 20014KT 4000 -RA BR BKN008 OVC013 09/08 Q1004 TEMPO RA BECMG 22015G25KT
  • 131530Z AUTO 19014KT 9999 -DZ BKN011 BKN016 BKN034 09/07 Q1005 TEMPO 4000 RA BKN008 BECMG 22015G25KT
  • 131500Z AUTO 20013KT 9999 -RA BKN012 BKN017 BKN034 09/08 Q1006 TEMPO 4000 RA BKN008 BECMG 22015G25KT
  • 131430Z AUTO 21014KT 7000 -DZ BKN013 BKN019 OVC038 09/08 Q1007 TEMPO 4000 RA BKN008 BECMG 22015G25KT
  • 131400Z AUTO 20009KT 6000 BKN010 BKN015 OVC054 09/08 Q1007 TEMPO 4000 RA BECMG 23015G25KT

Prévision TAF périmée.
Pas de NOTAMs connus pour ce terrain.
4 SIGMETs publiés pour la FIR Paris (LFFF) :
 
Turbulence forte
LFFF SIGMET 6 VALID 131700/132000 LFPW
LFFF PARIS FIR/UIR SEV TURB FCST S OF N4745 AND W OF E00300 SFC/FL050 MOV NE 40KT INTSF=
Annulation du SIGMET 4 
LFFF SIGMET 5 VALID 131600/132100 LFPW
LFFF PARIS FIR/UIR CNL SIGMET 4 131700/132100=
SIGMET 4  ANNULÉ :
Turbulence forte
LFFF SIGMET 4 VALID 131700/132100 LFPW
LFFF PARIS FIR/UIR SEV TURB FCST S OF N4745 AND W OF E00300 SFC/FL050 MOV NE 40KT INTSF=
Turbulence forte
LFFF SIGMET 3 VALID 131600/132000 LFPW
LFFF PARIS FIR/UIR SEV TURB FCST WI N4900 W00015 - N5000 W00015 - N5115 E00200 - N5100 E00215 - N5000 E00215 - N4900 W00015 SFC/FL050 MOV E 50KT NC=



MET'MAP, la Météo Aéronautique d'un coup d'oeil ! - Copyright ORBIFLY Décembre 2007 - Disclaimer

ORBIFLY MET'MAP TEAM :

Programmation & Développement : Alexandra Zaïnal
Conception & Développement : Baudouin d'Aumeries
Co-Programmation & Développement : Marc-Olivier Méhu
Soutien technique & logistique : Manuel Goepfert

Contact : metmap@orbifly.com




SOURCES & CREDITS :

   NOAA